Time;durP1;ratioP1;P1;durP2;ratioP2;P2;SDS_P1;SDS_P2;PMS_P1;PMS_P2;Temp;Humidity;BMP_temperature;BMP_pressure;BME280_temperature;BME280_humidity;BME280_pressure;Samples;Min_cycle;Max_cycle;Signal;HPM_P1;HPM_P2
2023/04/24 00:01:10;;;;;;;;;;;;;;;;;;4985960;28;93950;-64
2023/04/24 00:03:36;;;;;;;;;;;;;;;;;;4985999;28;93191;-63
2023/04/24 00:06:02;;;;;;;;;;;;;;;;;;4985579;28;92208;-64
2023/04/24 00:08:27;;;;;;;;;;;;;;;;;;4985634;28;92186;-64
2023/04/24 00:10:52;;;;;;;;;;;;;;;;;;4986036;28;91953;-65
2023/04/24 00:13:18;;;;;;;;;;;;;;;;;;4988435;28;92391;-64
2023/04/24 00:15:43;;;;;;;;;;;;;;;;;;4984442;28;93979;-62
2023/04/24 00:18:08;;;;;;;;;;;;;;;;;;4985099;28;93673;-64
2023/04/24 00:20:35;;;;;;;;;;;;;;;;;;4985782;28;93183;-63
2023/04/24 00:23:00;;;;;;;;;;;;;;;;;;4985501;28;93727;-65
2023/04/24 00:25:25;;;;;;;;;;;;;;;;;;4985158;28;92870;-64
2023/04/24 00:27:51;;;;;;;;;;;;;;;;;;4985518;28;93114;-68
2023/04/24 00:30:16;;;;;;;;;;;;;;;;;;4985390;28;92623;-67
2023/04/24 00:32:41;;;;;;;;;;;;;;;;;;4988373;28;93428;-66
2023/04/24 00:35:07;;;;;;;;;;;;;;;;;;4985631;28;93014;-67
2023/04/24 00:37:32;;;;;;;;;;;;;;;;;;4985474;28;92208;-68
2023/04/24 00:39:57;;;;;;;;;;;;;;;;;;4984931;28;92896;-66
2023/04/24 00:42:22;;;;;;;;;;;;;;;;;;4983813;28;93778;-65
2023/04/24 00:44:48;;;;;;;;;;;;;;;;;;4985127;28;92884;-68
2023/04/24 00:47:14;;;;;;;;;;;;;;;;;;4987247;28;92985;-69
2023/04/24 00:49:39;;;;;;;;;;;;;;;;;;4984965;28;92872;-70
2023/04/24 00:52:07;;;;;;;;;;;;;;;;;;4984767;28;92711;-67
2023/04/24 00:54:32;;;;;;;;;;;;;;;;;;4987960;28;92980;-66
2023/04/24 00:56:58;;;;;;;;;;;;;;;;;;4984460;28;93322;-69
2023/04/24 00:59:23;;;;;;;;;;;;;;;;;;4984474;28;92595;-67
2023/04/24 01:01:48;;;;;;;;;;;;;;;;;;4984672;28;92722;-65
2023/04/24 01:04:14;;;;;;;;;;;;;;;;;;4985254;28;92960;-65
2023/04/24 01:06:40;;;;;;;;;;;;;;;;;;4984507;28;94020;-66
2023/04/24 01:09:05;;;;;;;;;;;;;;;;;;4984679;28;92895;-64
2023/04/24 01:11:30;;;;;;;;;;;;;;;;;;4984595;28;92512;-62
2023/04/24 01:13:56;;;;;;;;;;;;;;;;;;4984722;28;92371;-65
2023/04/24 01:16:21;;;;;;;;;;;;;;;;;;4987389;28;92600;-67
2023/04/24 01:18:47;;;;;;;;;;;;;;;;;;4984316;28;93529;-68
2023/04/24 01:21:16;;;;;;;;;;;;;;;;;;4984705;28;92708;-68
2023/04/24 01:23:42;;;;;;;;;;;;;;;;;;4985591;28;92105;-69
2023/04/24 01:26:07;;;;;;;;;;;;;;;;;;4984499;28;92644;-65
2023/04/24 01:28:33;;;;;;;;;;;;;;;;;;4984458;28;93570;-66
2023/04/24 01:30:59;;;;;;;;;;;;;;;;;;4983768;28;94001;-64
2023/04/24 01:33:25;;;;;;;;;;;;;;;;;;4984150;28;94250;-64
2023/04/24 01:35:50;;;;;;;;;;;;;;;;;;4984224;28;93052;-64
2023/04/24 01:38:15;;;;;;;;;;;;;;;;;;4987356;28;92267;-69
2023/04/24 01:40:40;;;;;;;;;;;;;;;;;;4984162;28;92820;-66
2023/04/24 01:43:06;;;;;;;;;;;;;;;;;;4984208;28;92886;-63
2023/04/24 01:45:31;;;;;;;;;;;;;;;;;;4984211;28;92597;-62
2023/04/24 01:47:57;;;;;;;;;;;;;;;;;;4985077;28;92245;-63
2023/04/24 01:50:22;;;;;;;;;;;;;;;;;;4984183;28;92793;-66
2023/04/24 01:52:47;;;;;;;;;;;;;;;;;;4984288;28;92505;-67
2023/04/24 01:55:13;;;;;;;;;;;;;;;;;;4983994;28;93605;-67
2023/04/24 01:57:38;;;;;;;;;;;;;;;;;;4983681;28;92702;-68
2023/04/24 02:00:07;;;;;;;;;;;;;;;;;;4987009;28;92543;-64
2023/04/24 02:02:32;;;;;;;;;;;;;;;;;;4983824;28;92582;-64
2023/04/24 02:04:58;;;;;;;;;;;;;;;;;;4983957;28;93011;-65
2023/04/24 02:07:23;;;;;;;;;;;;;;;;;;4983895;28;92724;-66
2023/04/24 02:09:48;;;;;;;;;;;;;;;;;;4983286;28;92338;-66
2023/04/24 02:12:14;;;;;;;;;;;;;;;;;;4984132;28;93018;-67
2023/04/24 02:14:39;;;;;;;;;;;;;;;;;;4983014;28;93772;-66
2023/04/24 02:17:04;;;;;;;;;;;;;;;;;;4983725;28;92798;-66
2023/04/24 02:19:30;;;;;;;;;;;;;;;;;;4982943;28;93713;-69
2023/04/24 02:21:55;;;;;;;;;;;;;;;;;;4986552;28;92793;-68
2023/04/24 02:24:20;;;;;;;;;;;;;;;;;;4983635;28;93616;-64
2023/04/24 02:26:45;;;;;;;;;;;;;;;;;;4983714;28;92711;-64
2023/04/24 02:29:11;;;;;;;;;;;;;;;;;;4983762;28;92406;-66
2023/04/24 02:31:36;;;;;;;;;;;;;;;;;;4983462;28;92490;-63
2023/04/24 02:34:01;;;;;;;;;;;;;;;;;;4983295;28;93215;-66
2023/04/24 02:36:26;;;;;;;;;;;;;;;;;;4984388;28;91571;-64
2023/04/24 02:38:52;;;;;;;;;;;;;;;;;;4983196;28;92741;-67
2023/04/24 02:41:17;;;;;;;;;;;;;;;;;;4986958;28;92548;-68
2023/04/24 02:43:42;;;;;;;;;;;;;;;;;;4983081;28;93952;-66
2023/04/24 02:46:07;;;;;;;;;;;;;;;;;;4983354;28;93221;-63
2023/04/24 02:48:32;;;;;;;;;;;;;;;;;;4983585;28;94012;-66
2023/04/24 02:50:58;;;;;;;;;;;;;;;;;;4998194;28;94077;-68
2023/04/24 02:53:23;;;;;;;;;;;;;;;;;;5003576;28;93490;-66
2023/04/24 02:55:48;;;;;;;;;;;;;;;;;;5003043;28;92740;-68
2023/04/24 02:58:13;;;;;;;;;;;;;;;;;;4984834;28;93479;-69
2023/04/24 03:00:39;;;;;;;;;;;;;;;;;;4982334;28;94768;-65
2023/04/24 03:03:05;;;;;;;;;;;;;;;;;;4986175;28;92258;-66
2023/04/24 03:05:30;;;;;;;;;;;;;;;;;;4983146;28;93010;-61
2023/04/24 03:07:56;;;;;;;;;;;;;;;;;;4982867;28;93151;-63
2023/04/24 03:10:22;;;;;;;;;;;;;;;;;;4983514;28;93281;-69
2023/04/24 03:12:47;;;;;;;;;;;;;;;;;;4983112;28;93835;-68
2023/04/24 03:15:12;;;;;;;;;;;;;;;;;;4982659;28;92437;-63
2023/04/24 03:17:38;;;;;;;;;;;;;;;;;;4983064;28;93091;-67
2023/04/24 03:20:05;;;;;;;;;;;;;;;;;;4983406;28;92700;-67
2023/04/24 03:22:32;;;;;;;;;;;;;;;;;;4985499;28;92340;-64
2023/04/24 03:24:57;;;;;;;;;;;;;;;;;;4989645;28;93497;-68
2023/04/24 03:27:23;;;;;;;;;;;;;;;;;;4985733;28;92591;-66
2023/04/24 03:29:51;;;;;;;;;;;;;;;;;;4986794;28;92382;-69
2023/04/24 03:32:16;;;;;;;;;;;;;;;;;;4985971;28;95393;-69
2023/04/24 03:34:41;;;;;;;;;;;;;;;;;;4986189;28;92223;-64
2023/04/24 03:37:07;;;;;;;;;;;;;;;;;;4986113;28;92671;-64
2023/04/24 03:39:32;;;;;;;;;;;;;;;;;;4985884;28;93038;-68
2023/04/24 03:41:57;;;;;;;;;;;;;;;;;;5001218;28;92850;-64
2023/04/24 03:44:22;;;;;;;;;;;;;;;;;;4986011;28;92486;-68
2023/04/24 03:46:47;;;;;;;;;;;;;;;;;;4988797;28;93258;-67
2023/04/24 03:49:13;;;;;;;;;;;;;;;;;;4986065;28;92400;-66
2023/04/24 03:51:38;;;;;;;;;;;;;;;;;;4985716;28;92561;-69
2023/04/24 03:54:03;;;;;;;;;;;;;;;;;;4985554;28;92765;-64
2023/04/24 03:56:28;;;;;;;;;;;;;;;;;;4985553;28;93721;-68
2023/04/24 03:58:53;;;;;;;;;;;;;;;;;;4986135;28;92770;-66
2023/04/24 04:01:20;;;;;;;;;;;;;;;;;;4986778;28;92510;-69
2023/04/24 04:03:45;;;;;;;;;;;;;;;;;;4986199;28;92546;-67
2023/04/24 04:06:12;;;;;;;;;;;;;;;;;;4985806;28;93586;-65
2023/04/24 04:08:38;;;;;;;;;;;;;;;;;;4988923;28;92792;-65
2023/04/24 04:11:03;;;;;;;;;;;;;;;;;;4985679;28;92702;-69
2023/04/24 04:13:28;;;;;;;;;;;;;;;;;;4986042;28;92109;-65
2023/04/24 04:15:53;;;;;;;;;;;;;;;;;;4985604;28;92619;-65
2023/04/24 04:18:18;;;;;;;;;;;;;;;;;;4985092;28;93185;-65
2023/04/24 04:20:44;;;;;;;;;;;;;;;;;;4984586;28;93681;-64
2023/04/24 04:23:09;;;;;;;;;;;;;;;;;;4985764;28;93355;-62
2023/04/24 04:25:34;;;;;;;;;;;;;;;;;;4985096;28;94079;-67
2023/04/24 04:27:59;;;;;;;;;;;;;;;;;;4985187;28;92116;-63
2023/04/24 04:30:25;;;;;;;;;;;;;;;;;;4988132;28;92560;-69
2023/04/24 04:32:51;;;;;;;;;;;;;;;;;;4985665;28;92816;-61
2023/04/24 04:35:16;;;;;;;;;;;;;;;;;;4985414;28;93555;-65
2023/04/24 04:37:41;;;;;;;;;;;;;;;;;;4985723;28;92248;-64
2023/04/24 04:40:07;;;;;;;;;;;;;;;;;;4984822;28;92727;-67
2023/04/24 04:42:33;;;;;;;;;;;;;;;;;;4985211;28;92635;-66
2023/04/24 04:44:59;;;;;;;;;;;;;;;;;;4984705;28;93790;-66
2023/04/24 04:47:25;;;;;;;;;;;;;;;;;;4984774;28;92857;-68
2023/04/24 04:49:51;;;;;;;;;;;;;;;;;;4988363;28;93637;-63
2023/04/24 04:52:17;;;;;;;;;;;;;;;;;;4984878;28;93386;-68
2023/04/24 04:54:42;;;;;;;;;;;;;;;;;;4983517;28;93492;-66
2023/04/24 04:57:07;;;;;;;;;;;;;;;;;;4987323;28;93361;-68
2023/04/24 04:59:33;;;;;;;;;;;;;;;;;;4984627;28;92646;-62
2023/04/24 05:01:58;;;;;;;;;;;;;;;;;;4985330;28;92399;-62
2023/04/24 05:04:23;;;;;;;;;;;;;;;;;;4984593;28;92761;-69
2023/04/24 05:06:50;;;;;;;;;;;;;;;;;;4984936;28;92611;-64
2023/04/24 05:09:16;;;;;;;;;;;;;;;;;;4983593;28;93971;-67
2023/04/24 05:11:41;;;;;;;;;;;;;;;;;;4987293;28;92645;-63
2023/04/24 05:14:06;;;;;;;;;;;;;;;;;;4984560;28;92552;-67
2023/04/24 05:16:31;;;;;;;;;;;;;;;;;;4984416;28;92855;-64
2023/04/24 05:18:56;;;;;;;;;;;;;;;;;;4984754;28;92735;-66
2023/04/24 05:21:22;;;;;;;;;;;;;;;;;;4984678;28;93136;-68
2023/04/24 05:23:47;;;;;;;;;;;;;;;;;;4984513;28;92842;-61
2023/04/24 05:26:13;;;;;;;;;;;;;;;;;;4985386;28;91503;-69
2023/04/24 05:28:38;;;;;;;;;;;;;;;;;;4984490;28;92228;-67
2023/04/24 05:31:03;;;;;;;;;;;;;;;;;;4984621;28;92602;-68
2023/04/24 05:33:29;;;;;;;;;;;;;;;;;;4987032;28;93410;-63
2023/04/24 05:35:54;;;;;;;;;;;;;;;;;;4984848;28;94344;-66
2023/04/24 05:38:19;;;;;;;;;;;;;;;;;;4984897;28;92944;-64
2023/04/24 05:40:47;;;;;;;;;;;;;;;;;;4984910;28;92544;-67
2023/04/24 05:43:13;;;;;;;;;;;;;;;;;;4984054;28;92726;-68
2023/04/24 05:45:38;;;;;;;;;;;;;;;;;;4984052;28;92829;-70
2023/04/24 05:48:03;;;;;;;;;;;;;;;;;;4983965;28;92775;-70
2023/04/24 05:50:29;;;;;;;;;;;;;;;;;;4984426;28;91899;-64
2023/04/24 05:52:54;;;;;;;;;;;;;;;;;;4984285;28;92427;-66
2023/04/24 05:55:19;;;;;;;;;;;;;;;;;;4986727;28;93571;-70
2023/04/24 05:57:45;;;;;;;;;;;;;;;;;;4983758;28;93650;-70
2023/04/24 06:00:11;;;;;;;;;;;;;;;;;;4984076;28;94368;-64
2023/04/24 06:02:37;;;;;;;;;;;;;;;;;;4983913;28;92656;-63
2023/04/24 06:05:02;;;;;;;;;;;;;;;;;;4983938;28;92737;-69
2023/04/24 06:07:27;;;;;;;;;;;;;;;;;;4983677;28;93568;-71
2023/04/24 06:09:53;;;;;;;;;;;;;;;;;;4983786;28;93150;-68
2023/04/24 06:12:18;;;;;;;;;;;;;;;;;;4983937;28;92832;-66
2023/04/24 06:14:43;;;;;;;;;;;;;;;;;;4984194;28;92504;-70
2023/04/24 06:17:09;;;;;;;;;;;;;;;;;;4986860;28;93752;-68
2023/04/24 06:19:34;;;;;;;;;;;;;;;;;;4982221;28;93677;-65
2023/04/24 06:21:59;;;;;;;;;;;;;;;;;;4982497;28;94650;-66
2023/04/24 06:24:28;;;;;;;;;;;;;;;;;;4983990;28;92930;-64
2023/04/24 06:26:54;;;;;;;;;;;;;;;;;;4983735;28;93472;-66
2023/04/24 06:29:19;;;;;;;;;;;;;;;;;;4983385;28;94101;-68
2023/04/24 06:31:44;;;;;;;;;;;;;;;;;;4983451;28;92414;-62
2023/04/24 06:34:09;;;;;;;;;;;;;;;;;;4983109;28;92478;-66
2023/04/24 06:36:35;;;;;;;;;;;;;;;;;;4983169;28;93795;-65
2023/04/24 06:39:01;;;;;;;;;;;;;;;;;;4986730;28;91761;-65
2023/04/24 06:41:26;;;;;;;;;;;;;;;;;;4983671;28;93802;-66
2023/04/24 06:43:51;;;;;;;;;;;;;;;;;;4983144;28;92617;-68
2023/04/24 06:46:16;;;;;;;;;;;;;;;;;;4983043;28;94042;-66
2023/04/24 06:48:42;;;;;;;;;;;;;;;;;;4983295;28;92717;-63
2023/04/24 06:51:07;;;;;;;;;;;;;;;;;;4983120;28;92535;-66
2023/04/24 06:53:33;;;;;;;;;;;;;;;;;;4983617;28;94076;-66
2023/04/24 06:55:58;;;;;;;;;;;;;;;;;;4983335;28;93069;-65
2023/04/24 06:58:24;;;;;;;;;;;;;;;;;;5010131;28;92207;-69
2023/04/24 07:00:50;;;;;;;;;;;;;;;;;;5006513;28;93246;-64
2023/04/24 07:03:15;;;;;;;;;;;;;;;;;;5007820;28;91514;-64
2023/04/24 07:05:41;;;;;;;;;;;;;;;;;;5005939;28;93227;-63
2023/04/24 07:08:06;;;;;;;;;;;;;;;;;;5006686;28;93811;-63
2023/04/24 07:10:33;;;;;;;;;;;;;;;;;;5006032;28;93552;-63
2023/04/24 07:12:59;;;;;;;;;;;;;;;;;;5006639;28;94294;-65
2023/04/24 07:15:24;;;;;;;;;;;;;;;;;;5006471;28;94186;-64
2023/04/24 07:17:49;;;;;;;;;;;;;;;;;;5005930;28;92241;-66
2023/04/24 07:20:15;;;;;;;;;;;;;;;;;;5000005;28;92757;-65
2023/04/24 07:22:40;;;;;;;;;;;;;;;;;;4986306;28;92230;-67
2023/04/24 07:25:06;;;;;;;;;;;;;;;;;;4986666;28;92830;-68
2023/04/24 07:27:32;;;;;;;;;;;;;;;;;;4987021;28;93502;-70
2023/04/24 07:29:57;;;;;;;;;;;;;;;;;;4986662;28;92557;-64
2023/04/24 07:32:22;;;;;;;;;;;;;;;;;;4985897;28;92618;-67
2023/04/24 07:34:47;;;;;;;;;;;;;;;;;;4985794;28;93485;-67
2023/04/24 07:37:12;;;;;;;;;;;;;;;;;;4986244;28;92239;-65
2023/04/24 07:39:38;;;;;;;;;;;;;;;;;;4985919;28;92489;-67
2023/04/24 07:42:03;;;;;;;;;;;;;;;;;;4988811;28;92766;-65
2023/04/24 07:44:28;;;;;;;;;;;;;;;;;;4986483;28;92946;-70
2023/04/24 07:46:54;;;;;;;;;;;;;;;;;;4985928;28;92781;-67
2023/04/24 07:49:19;;;;;;;;;;;;;;;;;;4985499;28;92300;-65
2023/04/24 07:51:45;;;;;;;;;;;;;;;;;;4986380;28;92508;-69
2023/04/24 07:54:10;;;;;;;;;;;;;;;;;;4985626;28;93773;-70
2023/04/24 07:56:38;;;;;;;;;;;;;;;;;;4985744;28;94016;-70
2023/04/24 07:59:03;;;;;;;;;;;;;;;;;;4984947;28;93874;-70
2023/04/24 08:01:29;;;;;;;;;;;;;;;;;;4985750;28;92742;-70
2023/04/24 08:03:54;;;;;;;;;;;;;;;;;;4988630;28;92194;-64
2023/04/24 08:06:19;;;;;;;;;;;;;;;;;;4985298;28;93126;-66
2023/04/24 08:08:44;;;;;;;;;;;;;;;;;;4985859;28;93259;-67
2023/04/24 08:11:09;;;;;;;;;;;;;;;;;;4985846;28;92557;-62
2023/04/24 08:13:35;;;;;;;;;;;;;;;;;;4985509;28;93661;-64
2023/04/24 08:16:00;;;;;;;;;;;;;;;;;;4984975;28;91577;-70
2023/04/24 08:18:26;;;;;;;;;;;;;;;;;;4985763;28;92256;-67
2023/04/24 08:20:51;;;;;;;;;;;;;;;;;;4985283;28;92730;-65
2023/04/24 08:23:16;;;;;;;;;;;;;;;;;;4985322;28;93739;-68
2023/04/24 08:25:41;;;;;;;;;;;;;;;;;;4988718;28;93225;-68
2023/04/24 08:28:08;;;;;;;;;;;;;;;;;;4983917;28;93127;-65
2023/04/24 08:30:33;;;;;;;;;;;;;;;;;;4985573;28;92603;-67
2023/04/24 08:32:59;;;;;;;;;;;;;;;;;;4985237;28;92627;-63
2023/04/24 08:35:24;;;;;;;;;;;;;;;;;;4985464;28;92696;-65
2023/04/24 08:37:49;;;;;;;;;;;;;;;;;;4985483;28;92695;-63
2023/04/24 08:40:16;;;;;;;;;;;;;;;;;;4985675;28;91835;-63
2023/04/24 08:42:42;;;;;;;;;;;;;;;;;;4984968;28;92404;-64
2023/04/24 08:45:08;;;;;;;;;;;;;;;;;;4987849;28;92680;-67
2023/04/24 08:47:35;;;;;;;;;;;;;;;;;;4984407;28;94469;-64
2023/04/24 08:50:02;;;;;;;;;;;;;;;;;;4985274;28;93097;-69
2023/04/24 08:52:28;;;;;;;;;;;;;;;;;;4995463;28;93739;-63
2023/04/24 08:54:53;;;;;;;;;;;;;;;;;;5005023;28;93635;-69
2023/04/24 08:57:18;;;;;;;;;;;;;;;;;;5001461;28;94205;-67
2023/04/24 08:59:44;;;;;;;;;;;;;;;;;;4985030;28;92654;-67
2023/04/24 09:02:10;;;;;;;;;;;;;;;;;;4984829;28;93281;-63
2023/04/24 09:04:35;;;;;;;;;;;;;;;;;;4985354;28;92664;-67
2023/04/24 09:07:02;;;;;;;;;;;;;;;;;;4987575;28;92603;-64
2023/04/24 09:09:29;;;;;;;;;;;;;;;;;;4984741;28;93492;-64
2023/04/24 09:11:55;;;;;;;;;;;;;;;;;;4983852;28;93636;-66
2023/04/24 09:14:21;;;;;;;;;;;;;;;;;;4984651;28;92288;-61
2023/04/24 09:16:46;;;;;;;;;;;;;;;;;;4984091;28;92765;-67
2023/04/24 09:19:12;;;;;;;;;;;;;;;;;;4982500;28;92594;-68
2023/04/24 09:21:37;;;;;;;;;;;;;;;;;;4984794;28;92374;-68
2023/04/24 09:24:07;;;;;;;;;;;;;;;;;;4984541;28;92384;-68
2023/04/24 09:26:34;;;;;;;;;;;;;;;;;;4983096;28;93337;-69
2023/04/24 09:29:00;;;;;;;;;;;;;;;;;;4988362;28;91995;-70
2023/04/24 09:31:26;;;;;;;;;;;;;;;;;;4984657;28;93844;-65
2023/04/24 09:33:55;;;;;;;;;;;;;;;;;;4982956;28;92807;-66
2023/04/24 09:36:47;;;;;;;;;;;;;;;;;;4984203;28;93070;-67
2023/04/24 09:39:15;;;;;;;;;;;;;;;;;;4980637;28;93827;-65
2023/04/24 09:41:44;;;;;;;;;;;;;;;;;;4984901;28;93771;-67
2023/04/24 09:44:14;;;;;;;;;;;;;;;;;;4984436;28;92999;-64
2023/04/24 09:46:40;;;;;;;;;;;;;;;;;;4984187;28;93802;-68
2023/04/24 09:49:10;;;;;;;;;;;;;;;;;;4984159;28;93656;-67
2023/04/24 09:51:36;;;;;;;;;;;;;;;;;;4987420;28;93864;-68
2023/04/24 09:54:02;;;;;;;;;;;;;;;;;;4984773;28;91490;-68
2023/04/24 09:56:28;;;;;;;;;;;;;;;;;;4983769;28;92843;-69
2023/04/24 09:58:53;;;;;;;;;;;;;;;;;;4983743;28;93815;-65
2023/04/24 10:01:31;;;;;;;;;;;;;;;;;;4980803;28;93223;-71
2023/04/24 10:03:57;;;;;;;;;;;;;;;;;;4964008;28;92219;-70
2023/04/24 10:06:22;;;;;;;;;;;;;;;;;;4964063;28;92779;-69
2023/04/24 10:08:47;;;;;;;;;;;;;;;;;;4964159;28;92457;-62
2023/04/24 10:11:13;;;;;;;;;;;;;;;;;;4964278;28;92601;-62
2023/04/24 10:13:40;;;;;;;;;;;;;;;;;;4983855;28;95482;-67
2023/04/24 10:16:07;;;;;;;;;;;;;;;;;;4983662;28;93685;-69
2023/04/24 10:18:32;;;;;;;;;;;;;;;;;;4984360;28;93027;-65
2023/04/24 10:20:59;;;;;;;;;;;;;;;;;;4984111;28;92742;-70
2023/04/24 10:23:25;;;;;;;;;;;;;;;;;;4982717;28;93542;-69
2023/04/24 10:25:50;;;;;;;;;;;;;;;;;;4983244;28;94161;-68
2023/04/24 10:28:17;;;;;;;;;;;;;;;;;;4983479;28;92196;-66
2023/04/24 10:30:43;;;;;;;;;;;;;;;;;;4985689;28;93507;-68
2023/04/24 10:33:08;;;;;;;;;;;;;;;;;;4987020;28;93186;-68
2023/04/24 10:35:35;;;;;;;;;;;;;;;;;;4990505;28;92219;-66
2023/04/24 10:38:03;;;;;;;;;;;;;;;;;;4987025;28;93878;-66
2023/04/24 10:40:35;;;;;;;;;;;;;;;;;;4986781;28;93569;-68
2023/04/24 10:43:06;;;;;;;;;;;;;;;;;;4987223;28;92543;-68
2023/04/24 10:45:31;;;;;;;;;;;;;;;;;;4986393;28;93968;-67
2023/04/24 10:48:10;;;;;;;;;;;;;;;;;;4986615;28;92293;-67
2023/04/24 10:50:44;;;;;;;;;;;;;;;;;;4986312;28;93551;-67
2023/04/24 10:53:17;;;;;;;;;;;;;;;;;;4986957;28;93682;-61
2023/04/24 10:55:44;;;;;;;;;;;;;;;;;;4989933;28;92679;-67
2023/04/24 10:58:09;;;;;;;;;;;;;;;;;;4986783;28;93761;-66
2023/04/24 11:00:36;;;;;;;;;;;;;;;;;;4989831;28;93508;-65
2023/04/24 11:03:04;;;;;;;;;;;;;;;;;;4987315;28;92217;-65
2023/04/24 11:05:47;;;;;;;;;;;;;;;;;;4986831;28;92891;-64
2023/04/24 11:08:14;;;;;;;;;;;;;;;;;;4985962;28;91588;-66
2023/04/24 11:10:46;;;;;;;;;;;;;;;;;;4986778;28;92300;-68
2023/04/24 11:13:14;;;;;;;;;;;;;;;;;;4986009;28;93913;-67
2023/04/24 11:15:41;;;;;;;;;;;;;;;;;;4986074;28;93430;-66
2023/04/24 11:18:06;;;;;;;;;;;;;;;;;;4989551;28;93330;-66
2023/04/24 11:20:31;;;;;;;;;;;;;;;;;;5001693;28;92778;-65
2023/04/24 11:23:03;;;;;;;;;;;;;;;;;;4986290;28;92633;-64
2023/04/24 11:25:30;;;;;;;;;;;;;;;;;;4985926;28;92930;-64
2023/04/24 11:28:05;;;;;;;;;;;;;;;;;;4986372;28;92326;-69
2023/04/24 11:30:31;;;;;;;;;;;;;;;;;;4986325;28;92609;-66
2023/04/24 11:33:02;;;;;;;;;;;;;;;;;;4986763;28;91976;-65
2023/04/24 11:35:29;;;;;;;;;;;;;;;;;;4986264;28;92271;-66
2023/04/24 11:37:55;;;;;;;;;;;;;;;;;;4986322;28;94102;-67
2023/04/24 11:40:22;;;;;;;;;;;;;;;;;;4988485;28;93573;-65
2023/04/24 11:42:48;;;;;;;;;;;;;;;;;;4985459;28;94559;-67
2023/04/24 11:45:14;;;;;;;;;;;;;;;;;;4985873;28;92731;-67
2023/04/24 11:47:40;;;;;;;;;;;;;;;;;;4986735;28;92830;-67
2023/04/24 11:50:06;;;;;;;;;;;;;;;;;;4986059;28;93819;-67
2023/04/24 11:52:33;;;;;;;;;;;;;;;;;;4985512;28;92761;-67
2023/04/24 11:54:59;;;;;;;;;;;;;;;;;;4985823;28;92225;-66
2023/04/24 11:57:27;;;;;;;;;;;;;;;;;;4986556;28;91739;-65
2023/04/24 11:59:53;;;;;;;;;;;;;;;;;;4985843;28;93624;-69
2023/04/24 12:02:25;;;;;;;;;;;;;;;;;;4988626;28;92852;-71
2023/04/24 12:04:51;;;;;;;;;;;;;;;;;;4985033;28;94851;-68
2023/04/24 12:07:16;;;;;;;;;;;;;;;;;;4986050;28;93260;-70
2023/04/24 12:09:42;;;;;;;;;;;;;;;;;;4986142;28;93929;-68
2023/04/24 12:12:08;;;;;;;;;;;;;;;;;;4985831;28;93195;-64
2023/04/24 12:14:42;;;;;;;;;;;;;;;;;;4985616;28;92873;-66
2023/04/24 12:17:07;;;;;;;;;;;;;;;;;;4985398;28;93466;-64
2023/04/24 12:19:32;;;;;;;;;;;;;;;;;;4985272;28;92870;-69
2023/04/24 12:22:05;;;;;;;;;;;;;;;;;;4986043;28;91978;-65
2023/04/24 12:24:30;;;;;;;;;;;;;;;;;;4988761;28;92208;-69
2023/04/24 12:26:56;;;;;;;;;;;;;;;;;;4985206;28;92849;-67
2023/04/24 12:29:21;;;;;;;;;;;;;;;;;;4984696;28;93302;-68
2023/04/24 12:31:46;;;;;;;;;;;;;;;;;;4985424;28;92885;-70
2023/04/24 12:34:21;;;;;;;;;;;;;;;;;;4986092;28;92749;-65
2023/04/24 12:36:47;;;;;;;;;;;;;;;;;;4985499;28;92930;-69
2023/04/24 12:39:16;;;;;;;;;;;;;;;;;;4984868;28;92821;-67
2023/04/24 12:41:55;;;;;;;;;;;;;;;;;;4985520;28;92693;-65
2023/04/24 12:44:28;;;;;;;;;;;;;;;;;;4985271;28;93469;-68
2023/04/24 12:46:53;;;;;;;;;;;;;;;;;;4988483;28;92011;-70
2023/04/24 12:49:18;;;;;;;;;;;;;;;;;;4985399;28;92483;-64
2023/04/24 12:51:43;;;;;;;;;;;;;;;;;;4984947;28;92714;-71
2023/04/24 12:54:08;;;;;;;;;;;;;;;;;;4984549;28;93908;-69
2023/04/24 12:56:36;;;;;;;;;;;;;;;;;;4984749;28;93213;-62
2023/04/24 12:59:01;;;;;;;;;;;;;;;;;;4984753;28;93799;-65
2023/04/24 13:01:26;;;;;;;;;;;;;;;;;;4984828;28;92761;-67
2023/04/24 13:03:51;;;;;;;;;;;;;;;;;;4984752;28;92621;-67
2023/04/24 13:06:17;;;;;;;;;;;;;;;;;;4987575;28;92766;-63
2023/04/24 13:08:42;;;;;;;;;;;;;;;;;;4987521;28;93846;-67
2023/04/24 13:11:07;;;;;;;;;;;;;;;;;;4985372;28;92045;-68
2023/04/24 13:13:32;;;;;;;;;;;;;;;;;;4984712;28;92606;-70
2023/04/24 13:15:57;;;;;;;;;;;;;;;;;;4984862;28;92701;-69
2023/04/24 13:18:23;;;;;;;;;;;;;;;;;;4984190;28;93632;-68
2023/04/24 13:20:48;;;;;;;;;;;;;;;;;;4985039;28;92713;-65
2023/04/24 13:23:14;;;;;;;;;;;;;;;;;;4984836;28;93664;-66
2023/04/24 13:25:40;;;;;;;;;;;;;;;;;;4984869;28;93741;-66
2023/04/24 13:28:05;;;;;;;;;;;;;;;;;;4987408;28;93326;-62
2023/04/24 13:30:31;;;;;;;;;;;;;;;;;;4984415;28;92807;-63
2023/04/24 13:32:56;;;;;;;;;;;;;;;;;;4984465;28;92189;-66
2023/04/24 13:35:21;;;;;;;;;;;;;;;;;;4985087;28;92593;-67
2023/04/24 13:37:46;;;;;;;;;;;;;;;;;;4984239;28;92967;-69
2023/04/24 13:40:11;;;;;;;;;;;;;;;;;;4984374;28;92254;-70
2023/04/24 13:42:37;;;;;;;;;;;;;;;;;;4983709;28;93529;-67
2023/04/24 13:45:03;;;;;;;;;;;;;;;;;;4983836;28;93949;-69
2023/04/24 13:47:28;;;;;;;;;;;;;;;;;;4984269;28;92375;-69
2023/04/24 13:49:54;;;;;;;;;;;;;;;;;;4987200;28;92528;-69
2023/04/24 13:52:19;;;;;;;;;;;;;;;;;;4983989;28;92523;-69
2023/04/24 13:54:44;;;;;;;;;;;;;;;;;;4984603;28;93441;-69
2023/04/24 13:57:10;;;;;;;;;;;;;;;;;;4984126;28;93280;-67
2023/04/24 13:59:35;;;;;;;;;;;;;;;;;;4984771;28;91878;-66
2023/04/24 14:02:01;;;;;;;;;;;;;;;;;;4984216;28;92116;-68
2023/04/24 14:04:26;;;;;;;;;;;;;;;;;;4982695;28;94137;-68
2023/04/24 14:06:51;;;;;;;;;;;;;;;;;;4983203;28;93495;-69
2023/04/24 14:09:16;;;;;;;;;;;;;;;;;;4983358;28;93435;-67
2023/04/24 14:11:41;;;;;;;;;;;;;;;;;;4986462;28;92637;-70
2023/04/24 14:14:07;;;;;;;;;;;;;;;;;;4984102;28;92385;-62
2023/04/24 14:16:33;;;;;;;;;;;;;;;;;;4984071;28;92928;-67
2023/04/24 14:18:58;;;;;;;;;;;;;;;;;;4983621;28;92744;-68
2023/04/24 14:21:23;;;;;;;;;;;;;;;;;;4983575;28;92421;-63
2023/04/24 14:23:48;;;;;;;;;;;;;;;;;;4984169;28;92021;-67
2023/04/24 14:26:13;;;;;;;;;;;;;;;;;;4983967;28;92253;-68
2023/04/24 14:28:39;;;;;;;;;;;;;;;;;;4983594;28;92615;-62
2023/04/24 14:31:04;;;;;;;;;;;;;;;;;;4983258;28;93709;-63
2023/04/24 14:33:29;;;;;;;;;;;;;;;;;;4986709;28;92630;-67
2023/04/24 14:35:55;;;;;;;;;;;;;;;;;;4983541;28;92889;-68
2023/04/24 14:38:20;;;;;;;;;;;;;;;;;;4984058;28;92593;-63
2023/04/24 14:40:45;;;;;;;;;;;;;;;;;;4983681;28;94620;-64
2023/04/24 14:43:11;;;;;;;;;;;;;;;;;;4983849;28;93157;-65
2023/04/24 14:45:36;;;;;;;;;;;;;;;;;;4983644;28;92282;-67
2023/04/24 14:48:02;;;;;;;;;;;;;;;;;;4983854;28;92487;-67
2023/04/24 14:50:27;;;;;;;;;;;;;;;;;;4983295;28;92703;-66
2023/04/24 14:52:53;;;;;;;;;;;;;;;;;;4983410;28;92895;-69
2023/04/24 14:55:18;;;;;;;;;;;;;;;;;;4986074;28;93600;-66
2023/04/24 14:57:44;;;;;;;;;;;;;;;;;;4983290;28;92276;-66
2023/04/24 15:00:09;;;;;;;;;;;;;;;;;;4983315;28;94434;-63
2023/04/24 15:02:39;;;;;;;;;;;;;;;;;;4987588;28;92584;-67
2023/04/24 15:05:04;;;;;;;;;;;;;;;;;;5003258;28;93610;-65
2023/04/24 15:07:30;;;;;;;;;;;;;;;;;;5003143;28;93647;-66
2023/04/24 15:09:56;;;;;;;;;;;;;;;;;;4991363;28;93508;-67
2023/04/24 15:12:21;;;;;;;;;;;;;;;;;;4983768;28;91523;-68
2023/04/24 15:14:46;;;;;;;;;;;;;;;;;;4986270;28;92523;-63
2023/04/24 15:17:12;;;;;;;;;;;;;;;;;;4983767;28;92338;-65
2023/04/24 15:19:37;;;;;;;;;;;;;;;;;;4986105;28;93655;-69
2023/04/24 15:22:02;;;;;;;;;;;;;;;;;;4986590;28;93635;-69
2023/04/24 15:24:27;;;;;;;;;;;;;;;;;;4986734;28;93030;-69
2023/04/24 15:26:53;;;;;;;;;;;;;;;;;;4986438;28;93535;-66
2023/04/24 15:29:18;;;;;;;;;;;;;;;;;;4986523;28;92745;-65
2023/04/24 15:31:43;;;;;;;;;;;;;;;;;;4986456;28;93200;-65
2023/04/24 15:34:08;;;;;;;;;;;;;;;;;;4986552;28;92711;-64
2023/04/24 15:36:34;;;;;;;;;;;;;;;;;;4989616;28;92188;-64
2023/04/24 15:39:00;;;;;;;;;;;;;;;;;;4985524;28;92700;-67
2023/04/24 15:41:25;;;;;;;;;;;;;;;;;;4985683;28;93588;-63
2023/04/24 15:43:50;;;;;;;;;;;;;;;;;;4985702;28;94315;-70
2023/04/24 15:46:16;;;;;;;;;;;;;;;;;;4986298;28;93208;-67
2023/04/24 15:48:44;;;;;;;;;;;;;;;;;;4986141;28;92737;-71
2023/04/24 15:51:09;;;;;;;;;;;;;;;;;;4986074;28;92471;-65
2023/04/24 15:53:34;;;;;;;;;;;;;;;;;;4986334;28;93508;-69
2023/04/24 15:56:00;;;;;;;;;;;;;;;;;;4985984;28;92784;-67
2023/04/24 15:58:25;;;;;;;;;;;;;;;;;;4989391;28;92520;-66
2023/04/24 16:00:52;;;;;;;;;;;;;;;;;;4986552;28;92350;-70
2023/04/24 16:03:18;;;;;;;;;;;;;;;;;;4986033;28;92775;-71
2023/04/24 16:05:43;;;;;;;;;;;;;;;;;;4986406;28;92559;-68
2023/04/24 16:08:09;;;;;;;;;;;;;;;;;;4985317;28;93636;-71
2023/04/24 16:10:34;;;;;;;;;;;;;;;;;;4985503;28;92745;-69
2023/04/24 16:13:02;;;;;;;;;;;;;;;;;;4985670;28;93168;-71
2023/04/24 16:15:27;;;;;;;;;;;;;;;;;;4985492;28;94003;-68
2023/04/24 16:17:52;;;;;;;;;;;;;;;;;;4985435;28;92419;-71
2023/04/24 16:20:17;;;;;;;;;;;;;;;;;;4988663;28;93394;-67
2023/04/24 16:22:43;;;;;;;;;;;;;;;;;;4985308;28;93156;-68
2023/04/24 16:25:09;;;;;;;;;;;;;;;;;;4985602;28;92955;-69
2023/04/24 16:27:35;;;;;;;;;;;;;;;;;;4984853;28;92924;-67
2023/04/24 16:30:00;;;;;;;;;;;;;;;;;;4985241;28;92395;-65
2023/04/24 16:32:26;;;;;;;;;;;;;;;;;;4984750;28;93222;-65
2023/04/24 16:34:51;;;;;;;;;;;;;;;;;;4985051;28;93163;-67
2023/04/24 16:37:17;;;;;;;;;;;;;;;;;;4985243;28;92570;-66